Time;durP1;ratioP1;P1;durP2;ratioP2;P2;SDS_P1;SDS_P2;PMS_P1;PMS_P2;Temp;Humidity;BMP_temperature;BMP_pressure;BME280_temperature;BME280_humidity;BME280_pressure;Samples;Min_cycle;Max_cycle;Signal;HPM_P1;HPM_P2
2023/08/09 00:01:31;;;;;;;;;;;18.10;69.50;;;;;;5090615;28;19924;-71
2023/08/09 00:03:57;;;;;;;;;;;18.10;69.50;;;;;;5090886;28;19920;-64
2023/08/09 00:06:22;;;;;;;;;;;18.00;69.50;;;;;;5091879;28;19920;-71
2023/08/09 00:08:48;;;;;;;;;;;18.10;69.60;;;;;;5094108;28;19931;-72
2023/08/09 00:11:13;;;;;;;;;;;18.10;69.60;;;;;;5094278;28;20298;-70
2023/08/09 00:13:39;;;;;;;;;;;18.00;69.50;;;;;;5095433;28;20184;-64
2023/08/09 00:16:05;;;;;;;;;;;18.00;69.50;;;;;;5094435;28;19926;-71
2023/08/09 00:18:30;;;;;;;;;;;18.00;69.50;;;;;;5094380;28;19926;-71
2023/08/09 00:20:56;;;;;;;;;;;18.10;69.60;;;;;;5094082;28;19979;-71
2023/08/09 00:23:21;;;;;;;;;;;18.00;69.60;;;;;;5094574;28;19926;-71
2023/08/09 00:25:47;;;;;;;;;;;18.00;69.60;;;;;;5094173;28;19920;-64
2023/08/09 00:28:12;;;;;;;;;;;18.00;69.60;;;;;;5094260;28;20371;-64
2023/08/09 00:30:38;;;;;;;;;;;18.00;69.60;;;;;;5095083;28;19931;-71
2023/08/09 00:33:04;;;;;;;;;;;18.00;69.60;;;;;;5095156;28;19943;-63
2023/08/09 00:35:30;;;;;;;;;;;18.00;69.60;;;;;;5076834;28;20016;-64
2023/08/09 00:37:55;;;;;;;;;;;18.00;69.60;;;;;;5093831;28;20192;-71
2023/08/09 00:40:21;;;;;;;;;;;18.00;69.70;;;;;;5093532;28;20196;-72
2023/08/09 00:42:46;;;;;;;;;;;18.00;69.60;;;;;;5093970;28;19920;-63
2023/08/09 00:45:12;;;;;;;;;;;18.00;69.70;;;;;;5093820;28;19920;-64
2023/08/09 00:47:37;;;;;;;;;;;18.00;69.70;;;;;;5093885;28;19924;-72
2023/08/09 00:50:03;;;;;;;;;;;18.00;69.70;;;;;;5094812;28;19920;-72
2023/08/09 00:52:29;;;;;;;;;;;18.00;69.70;;;;;;5094837;28;19927;-72
2023/08/09 00:54:55;;;;;;;;;;;18.00;69.80;;;;;;5093655;28;20328;-71
2023/08/09 00:57:21;;;;;;;;;;;18.00;69.80;;;;;;5094610;28;19926;-72
2023/08/09 00:59:46;;;;;;;;;;;18.00;69.80;;;;;;5092960;28;19924;-71
2023/08/09 01:02:12;;;;;;;;;;;18.00;69.80;;;;;;5093185;28;19924;-63
2023/08/09 01:04:38;;;;;;;;;;;18.00;69.80;;;;;;5093187;28;19997;-64
2023/08/09 01:07:10;;;;;;;;;;;18.00;69.80;;;;;;5093473;28;19963;-64
2023/08/09 01:09:37;;;;;;;;;;;18.00;69.80;;;;;;5093533;28;19947;-63
2023/08/09 01:12:07;;;;;;;;;;;18.00;69.80;;;;;;5093228;28;19920;-64
2023/08/09 01:14:33;;;;;;;;;;;18.00;69.90;;;;;;5093058;28;19920;-71
2023/08/09 01:17:00;;;;;;;;;;;18.00;69.90;;;;;;5093318;28;19959;-71
2023/08/09 01:22:10;;;;;;;;;;;18.00;69.90;;;;;;5130762;27;19912;-63
2023/08/09 01:24:35;;;;;;;;;;;18.00;69.90;;;;;;5129355;28;19920;-71
2023/08/09 01:27:01;;;;;;;;;;;18.00;69.90;;;;;;5129656;28;19973;-64
2023/08/09 01:29:26;;;;;;;;;;;18.00;69.90;;;;;;5129658;28;19973;-67
2023/08/09 01:31:52;;;;;;;;;;;18.00;69.90;;;;;;5129452;28;20006;-63
2023/08/09 01:34:18;;;;;;;;;;;18.00;69.90;;;;;;5129303;28;19927;-63
2023/08/09 01:36:46;;;;;;;;;;;17.90;69.90;;;;;;5130989;27;20279;-63
2023/08/09 01:39:14;;;;;;;;;;;18.00;70.00;;;;;;5163775;27;20383;-63
2023/08/09 01:41:42;;;;;;;;;;;18.00;70.00;;;;;;5129150;28;20393;-63
2023/08/09 01:44:07;;;;;;;;;;;18.00;70.00;;;;;;5129491;28;20336;-71
2023/08/09 01:46:34;;;;;;;;;;;18.00;70.00;;;;;;5129100;28;19972;-64
2023/08/09 01:49:07;;;;;;;;;;;17.90;70.00;;;;;;5130358;27;19919;-63
2023/08/09 01:51:33;;;;;;;;;;;17.90;70.00;;;;;;5129536;28;19927;-63
2023/08/09 01:53:58;;;;;;;;;;;17.90;70.00;;;;;;5163493;27;20382;-64
2023/08/09 01:56:24;;;;;;;;;;;17.90;70.00;;;;;;5130383;28;19919;-71
2023/08/09 01:58:49;;;;;;;;;;;17.90;70.00;;;;;;5129132;28;19927;-63
2023/08/09 02:01:15;;;;;;;;;;;18.00;70.10;;;;;;5129917;28;20401;-72
2023/08/09 02:03:40;;;;;;;;;;;17.90;70.00;;;;;;5129971;28;19923;-64
2023/08/09 02:06:06;;;;;;;;;;;17.90;70.00;;;;;;5129005;28;20367;-71
2023/08/09 02:08:31;;;;;;;;;;;17.90;70.00;;;;;;5128602;28;19965;-63
2023/08/09 02:10:57;;;;;;;;;;;17.90;70.00;;;;;;5128633;28;19924;-63
2023/08/09 02:13:22;;;;;;;;;;;17.90;70.00;;;;;;5128479;28;19920;-63
2023/08/09 02:15:48;;;;;;;;;;;17.90;70.00;;;;;;5129894;28;19919;-71
2023/08/09 02:18:13;;;;;;;;;;;17.90;70.00;;;;;;5128722;28;19928;-63
2023/08/09 02:20:39;;;;;;;;;;;17.90;70.00;;;;;;5128209;28;19924;-63
2023/08/09 02:23:05;;;;;;;;;;;17.90;70.10;;;;;;5128327;28;20350;-71
2023/08/09 02:25:30;;;;;;;;;;;17.90;70.00;;;;;;5128549;28;19919;-71
2023/08/09 02:27:57;;;;;;;;;;;17.90;70.00;;;;;;5128192;28;20003;-71
2023/08/09 02:30:23;;;;;;;;;;;17.90;70.10;;;;;;5128547;28;19920;-63
2023/08/09 02:32:50;;;;;;;;;;;17.90;70.10;;;;;;5117889;28;19927;-63
2023/08/09 02:35:16;;;;;;;;;;;17.90;70.10;;;;;;5114825;28;20290;-64
2023/08/09 02:37:41;;;;;;;;;;;17.90;70.10;;;;;;5114719;28;19946;-64
2023/08/09 02:40:08;;;;;;;;;;;17.90;70.10;;;;;;5114443;28;20371;-64
2023/08/09 02:42:33;;;;;;;;;;;17.90;70.10;;;;;;5114645;28;20251;-71
2023/08/09 02:44:59;;;;;;;;;;;17.90;70.10;;;;;;5114136;28;19927;-63
2023/08/09 02:47:24;;;;;;;;;;;17.90;70.10;;;;;;5114529;28;19947;-71
2023/08/09 02:49:50;;;;;;;;;;;17.90;70.10;;;;;;5115360;28;19927;-63
2023/08/09 02:52:15;;;;;;;;;;;17.90;70.10;;;;;;5115548;28;19920;-64
2023/08/09 02:54:41;;;;;;;;;;;17.90;70.10;;;;;;5114013;28;19945;-66
2023/08/09 02:57:06;;;;;;;;;;;17.90;70.10;;;;;;5115311;28;20453;-71
2023/08/09 02:59:32;;;;;;;;;;;17.80;70.10;;;;;;5114173;28;20378;-63
2023/08/09 03:01:58;;;;;;;;;;;17.80;70.10;;;;;;5115249;28;20367;-63
2023/08/09 03:04:23;;;;;;;;;;;17.80;70.10;;;;;;5113783;28;19926;-63
2023/08/09 03:06:49;;;;;;;;;;;17.80;70.10;;;;;;5114117;28;19920;-64
2023/08/09 03:09:15;;;;;;;;;;;17.90;70.20;;;;;;5114034;28;20382;-71
2023/08/09 03:11:40;;;;;;;;;;;17.80;70.10;;;;;;5115002;28;19920;-71
2023/08/09 03:14:05;;;;;;;;;;;17.80;70.10;;;;;;5114048;28;19964;-71
2023/08/09 03:16:31;;;;;;;;;;;17.90;70.10;;;;;;5115042;28;20383;-63
2023/08/09 03:18:56;;;;;;;;;;;17.90;70.20;;;;;;5114887;28;19931;-63
2023/08/09 03:21:22;;;;;;;;;;;17.80;70.40;;;;;;5114499;28;20447;-63
2023/08/09 03:23:47;;;;;;;;;;;17.80;70.10;;;;;;5096472;28;19932;-63
2023/08/09 03:26:13;;;;;;;;;;;17.80;70.10;;;;;;5096641;28;20011;-63
2023/08/09 03:28:42;;;;;;;;;;;17.80;70.10;;;;;;5096753;28;19924;-63
2023/08/09 03:31:08;;;;;;;;;;;17.80;70.10;;;;;;5096590;28;19923;-70
2023/08/09 03:33:34;;;;;;;;;;;17.80;70.20;;;;;;5114639;28;20394;-63
2023/08/09 03:35:59;;;;;;;;;;;17.80;70.10;;;;;;5113816;28;19919;-63
2023/08/09 03:38:25;;;;;;;;;;;17.80;70.20;;;;;;5096544;28;20271;-64
2023/08/09 03:40:50;;;;;;;;;;;17.80;70.20;;;;;;5114264;28;19928;-63
2023/08/09 03:43:16;;;;;;;;;;;17.80;70.20;;;;;;5113640;28;20014;-71
2023/08/09 03:45:41;;;;;;;;;;;17.80;70.20;;;;;;5096047;28;19920;-72
2023/08/09 03:48:07;;;;;;;;;;;17.80;70.20;;;;;;5114459;28;20412;-64
2023/08/09 03:50:33;;;;;;;;;;;17.80;70.20;;;;;;5096281;28;19920;-71
2023/08/09 03:52:58;;;;;;;;;;;17.80;70.20;;;;;;5096143;28;20413;-63
2023/08/09 03:55:24;;;;;;;;;;;17.80;70.20;;;;;;5096209;28;19919;-63
2023/08/09 03:57:50;;;;;;;;;;;17.80;70.20;;;;;;5095961;28;19961;-63
2023/08/09 04:00:17;;;;;;;;;;;17.80;70.20;;;;;;5095637;28;20428;-71
2023/08/09 04:02:44;;;;;;;;;;;17.80;70.30;;;;;;5113892;28;19926;-63
2023/08/09 04:05:10;;;;;;;;;;;17.80;70.20;;;;;;5114114;28;19920;-63
2023/08/09 04:07:35;;;;;;;;;;;17.80;70.20;;;;;;5113934;28;19927;-66
2023/08/09 04:10:01;;;;;;;;;;;17.80;70.30;;;;;;5113190;28;20279;-73
2023/08/09 04:12:27;;;;;;;;;;;17.80;70.20;;;;;;5095351;28;19984;-65
2023/08/09 04:14:52;;;;;;;;;;;17.80;70.30;;;;;;5113961;28;20383;-73
2023/08/09 04:17:18;;;;;;;;;;;17.80;70.20;;;;;;5113651;28;19926;-65
2023/08/09 04:19:43;;;;;;;;;;;17.70;70.20;;;;;;5095345;28;19920;-65
2023/08/09 04:22:09;;;;;;;;;;;17.80;70.20;;;;;;5095732;28;19923;-65
2023/08/09 04:24:34;;;;;;;;;;;17.70;70.20;;;;;;5129657;27;19974;-72
2023/08/09 04:27:00;;;;;;;;;;;17.70;70.20;;;;;;5095260;28;20382;-65
2023/08/09 04:29:27;;;;;;;;;;;17.70;70.20;;;;;;5095518;28;19963;-73
2023/08/09 04:31:52;;;;;;;;;;;17.80;70.30;;;;;;5095135;28;19920;-65
2023/08/09 04:34:17;;;;;;;;;;;17.70;70.20;;;;;;5095463;28;19942;-73
2023/08/09 04:36:43;;;;;;;;;;;17.70;70.20;;;;;;5095071;28;19926;-65
2023/08/09 04:39:09;;;;;;;;;;;17.70;70.20;;;;;;5095296;28;19965;-73
2023/08/09 04:41:35;;;;;;;;;;;17.70;70.20;;;;;;5095187;28;19919;-65
2023/08/09 04:44:00;;;;;;;;;;;17.70;70.20;;;;;;5095140;28;19970;-65
2023/08/09 04:46:26;;;;;;;;;;;17.70;70.20;;;;;;5113165;28;19974;-65
2023/08/09 04:48:51;;;;;;;;;;;17.70;70.20;;;;;;5095259;28;20279;-65
2023/08/09 04:51:18;;;;;;;;;;;17.70;70.20;;;;;;5094920;28;19923;-65
2023/08/09 04:53:44;;;;;;;;;;;17.70;70.30;;;;;;5095078;28;19968;-65
2023/08/09 04:56:09;;;;;;;;;;;17.70;70.30;;;;;;5094527;28;19920;-65
2023/08/09 04:58:35;;;;;;;;;;;17.70;70.20;;;;;;5095028;28;19969;-65
2023/08/09 05:01:01;;;;;;;;;;;17.70;70.20;;;;;;5112795;28;19920;-65
2023/08/09 05:03:26;;;;;;;;;;;17.70;70.30;;;;;;5094923;28;20029;-73
2023/08/09 05:05:52;;;;;;;;;;;17.70;70.20;;;;;;5094976;28;19919;-65
2023/08/09 05:08:17;;;;;;;;;;;17.70;70.30;;;;;;5094602;28;19923;-65
2023/08/09 05:10:43;;;;;;;;;;;17.70;70.20;;;;;;5094661;28;19920;-65
2023/08/09 05:13:08;;;;;;;;;;;17.70;70.20;;;;;;5094450;28;20029;-67
2023/08/09 05:15:34;;;;;;;;;;;17.70;70.30;;;;;;5094852;28;20064;-65
2023/08/09 05:17:59;;;;;;;;;;;17.70;70.30;;;;;;5094607;28;20384;-65
2023/08/09 05:20:25;;;;;;;;;;;17.70;70.20;;;;;;5097647;28;19928;-72
2023/08/09 05:22:50;;;;;;;;;;;17.70;70.20;;;;;;5111515;28;19920;-66
2023/08/09 05:25:16;;;;;;;;;;;17.70;70.20;;;;;;5111782;28;19919;-73
2023/08/09 05:27:46;;;;;;;;;;;17.70;70.30;;;;;;5111715;28;19924;-73
2023/08/09 05:30:12;;;;;;;;;;;17.70;70.30;;;;;;5111616;28;20022;-65
2023/08/09 05:32:38;;;;;;;;;;;17.70;70.30;;;;;;5112719;28;20006;-66
2023/08/09 05:35:04;;;;;;;;;;;17.70;71.00;;;;;;5111369;28;20475;-65
2023/08/09 05:37:30;;;;;;;;;;;17.70;70.30;;;;;;5111695;28;20003;-66
2023/08/09 05:39:55;;;;;;;;;;;17.70;70.30;;;;;;5111266;28;19958;-65
2023/08/09 05:42:21;;;;;;;;;;;17.70;70.30;;;;;;5111602;28;19958;-66
2023/08/09 05:44:47;;;;;;;;;;;17.70;70.30;;;;;;5111260;28;19949;-65
2023/08/09 05:47:12;;;;;;;;;;;17.70;70.30;;;;;;5111319;28;19920;-65
2023/08/09 05:49:38;;;;;;;;;;;17.70;70.30;;;;;;5112515;28;20014;-66
2023/08/09 05:52:04;;;;;;;;;;;17.70;70.30;;;;;;5112735;28;20374;-73
2023/08/09 05:54:29;;;;;;;;;;;17.70;70.20;;;;;;5112580;28;19920;-65
2023/08/09 05:56:55;;;;;;;;;;;17.70;70.30;;;;;;5112560;28;19924;-65
2023/08/09 05:59:20;;;;;;;;;;;17.70;70.30;;;;;;5111166;28;19920;-66
2023/08/09 06:01:46;;;;;;;;;;;17.70;70.30;;;;;;5110918;28;19969;-72
2023/08/09 06:04:12;;;;;;;;;;;17.70;70.30;;;;;;5111416;28;19919;-65
2023/08/09 06:06:37;;;;;;;;;;;17.70;70.30;;;;;;5111271;28;19923;-65
2023/08/09 06:09:05;;;;;;;;;;;17.70;70.30;;;;;;5115323;28;19927;-65
2023/08/09 06:11:32;;;;;;;;;;;17.70;70.20;;;;;;5114888;28;20064;-65
2023/08/09 06:13:59;;;;;;;;;;;17.70;70.30;;;;;;5115169;28;19920;-65
2023/08/09 06:16:24;;;;;;;;;;;17.70;70.30;;;;;;5115048;28;19927;-65
2023/08/09 06:18:49;;;;;;;;;;;17.70;70.30;;;;;;5114813;28;19920;-73
2023/08/09 06:21:15;;;;;;;;;;;17.70;70.30;;;;;;5114713;28;19994;-65
2023/08/09 06:23:40;;;;;;;;;;;17.70;70.40;;;;;;5115000;28;20390;-65
2023/08/09 06:26:06;;;;;;;;;;;17.70;70.30;;;;;;5114885;28;20374;-65
2023/08/09 06:28:31;;;;;;;;;;;17.70;70.20;;;;;;5115911;28;19919;-65
2023/08/09 06:30:57;;;;;;;;;;;17.70;70.30;;;;;;5114804;28;19946;-66
2023/08/09 06:33:23;;;;;;;;;;;17.70;70.30;;;;;;5115753;28;19920;-63
2023/08/09 06:35:48;;;;;;;;;;;17.70;70.20;;;;;;5115753;28;19926;-63
2023/08/09 06:38:14;;;;;;;;;;;17.70;70.30;;;;;;5115709;28;20023;-63
2023/08/09 06:40:39;;;;;;;;;;;17.70;70.30;;;;;;5114323;28;20325;-63
2023/08/09 06:43:05;;;;;;;;;;;17.70;70.20;;;;;;5114288;28;19927;-64
2023/08/09 06:45:30;;;;;;;;;;;17.70;70.30;;;;;;5115622;28;20354;-64
2023/08/09 06:47:56;;;;;;;;;;;17.80;70.30;;;;;;5114116;28;20006;-70
2023/08/09 06:50:23;;;;;;;;;;;17.70;70.20;;;;;;5115510;28;20014;-64
2023/08/09 06:52:48;;;;;;;;;;;17.70;70.20;;;;;;5115386;28;19927;-63
2023/08/09 06:55:14;;;;;;;;;;;17.70;70.20;;;;;;5114406;28;19919;-63
2023/08/09 06:57:40;;;;;;;;;;;17.70;70.30;;;;;;5114481;28;20410;-63
2023/08/09 07:00:15;;;;;;;;;;;17.70;70.20;;;;;;5113899;28;20432;-63
2023/08/09 07:02:40;;;;;;;;;;;17.70;70.30;;;;;;5113816;28;19919;-63
2023/08/09 07:05:09;;;;;;;;;;;17.70;70.20;;;;;;5114179;28;19943;-64
2023/08/09 07:07:34;;;;;;;;;;;17.70;70.20;;;;;;5115273;28;19920;-64
2023/08/09 07:10:00;;;;;;;;;;;17.70;70.20;;;;;;5097058;28;19946;-63
2023/08/09 07:12:25;;;;;;;;;;;17.70;70.20;;;;;;5114043;28;20006;-64
2023/08/09 07:14:51;;;;;;;;;;;17.70;70.30;;;;;;5115001;28;20375;-64
2023/08/09 07:17:17;;;;;;;;;;;17.70;70.20;;;;;;5113976;28;19931;-63
2023/08/09 07:19:42;;;;;;;;;;;17.70;70.20;;;;;;5114829;28;19923;-63
2023/08/09 07:22:08;;;;;;;;;;;17.70;70.20;;;;;;5096612;28;20018;-63
2023/08/09 07:24:33;;;;;;;;;;;17.70;70.20;;;;;;5096397;28;20107;-63
2023/08/09 07:26:59;;;;;;;;;;;17.70;70.20;;;;;;5096767;28;19919;-63
2023/08/09 07:29:25;;;;;;;;;;;17.70;70.20;;;;;;5114741;28;19923;-63
2023/08/09 07:31:50;;;;;;;;;;;17.70;71.00;;;;;;5096753;28;19920;-63
2023/08/09 07:34:16;;;;;;;;;;;17.70;70.30;;;;;;5096254;28;20352;-64
2023/08/09 07:36:42;;;;;;;;;;;17.70;70.20;;;;;;5096302;28;19920;-64
2023/08/09 07:39:09;;;;;;;;;;;17.70;70.20;;;;;;5096540;28;20030;-64
2023/08/09 07:41:35;;;;;;;;;;;17.70;70.30;;;;;;5114384;28;20400;-63
2023/08/09 07:44:00;;;;;;;;;;;17.70;70.20;;;;;;5096485;28;20036;-63
2023/08/09 07:46:27;;;;;;;;;;;17.70;70.30;;;;;;5096188;28;19959;-63
2023/08/09 07:48:53;;;;;;;;;;;17.70;70.30;;;;;;5114180;28;19920;-63
2023/08/09 07:51:18;;;;;;;;;;;17.70;70.30;;;;;;5096391;28;20014;-64
2023/08/09 07:53:47;;;;;;;;;;;17.70;70.30;;;;;;5096153;28;20058;-64
2023/08/09 07:56:14;;;;;;;;;;;17.80;70.40;;;;;;5114271;28;20368;-63
2023/08/09 07:58:39;;;;;;;;;;;17.70;70.30;;;;;;5095719;28;19966;-63
2023/08/09 08:01:05;;;;;;;;;;;17.70;70.30;;;;;;5095893;28;19985;-70
2023/08/09 08:03:31;;;;;;;;;;;17.70;70.30;;;;;;5095621;28;19926;-64
2023/08/09 08:05:57;;;;;;;;;;;17.70;70.30;;;;;;5095978;28;19919;-64
2023/08/09 08:08:22;;;;;;;;;;;17.70;70.30;;;;;;5095720;28;19926;-64
2023/08/09 08:10:48;;;;;;;;;;;17.70;70.30;;;;;;5095136;28;19919;-63
2023/08/09 08:13:14;;;;;;;;;;;17.70;70.30;;;;;;5095993;28;19920;-63
2023/08/09 08:15:39;;;;;;;;;;;17.70;70.30;;;;;;5095511;28;19926;-64
2023/08/09 08:18:05;;;;;;;;;;;17.70;70.30;;;;;;5095682;28;19919;-63
2023/08/09 08:20:31;;;;;;;;;;;17.70;70.30;;;;;;5099228;28;19935;-63
2023/08/09 08:22:56;;;;;;;;;;;17.70;70.30;;;;;;5112301;28;19920;-64
2023/08/09 08:25:22;;;;;;;;;;;17.70;70.30;;;;;;5113680;28;19919;-64
2023/08/09 08:27:47;;;;;;;;;;;17.70;70.30;;;;;;5113506;28;19924;-63
2023/08/09 08:30:13;;;;;;;;;;;17.80;70.40;;;;;;5112004;28;20267;-63
2023/08/09 08:32:39;;;;;;;;;;;17.80;70.40;;;;;;5113584;28;19926;-63
2023/08/09 08:35:10;;;;;;;;;;;17.80;70.30;;;;;;5113302;28;20010;-70
2023/08/09 08:37:36;;;;;;;;;;;17.70;70.30;;;;;;5112421;28;19920;-64
2023/08/09 08:40:06;;;;;;;;;;;17.80;70.30;;;;;;5111946;28;20374;-64
2023/08/09 08:42:32;;;;;;;;;;;17.80;70.40;;;;;;5113337;28;19919;-64
2023/08/09 08:44:57;;;;;;;;;;;17.80;70.40;;;;;;5112293;28;20294;-63
2023/08/09 08:47:24;;;;;;;;;;;17.80;70.30;;;;;;5111887;28;19928;-63
2023/08/09 08:49:50;;;;;;;;;;;17.80;70.40;;;;;;5112261;28;19919;-63
2023/08/09 08:52:16;;;;;;;;;;;17.80;70.30;;;;;;5113360;28;19920;-71
2023/08/09 08:54:42;;;;;;;;;;;17.80;70.30;;;;;;5112185;28;19927;-71
2023/08/09 08:57:08;;;;;;;;;;;17.80;71.00;;;;;;5113155;28;20398;-63
2023/08/09 08:59:34;;;;;;;;;;;17.80;70.10;;;;;;5112035;28;19967;-63
2023/08/09 09:02:02;;;;;;;;;;;17.80;70.00;;;;;;5111623;28;20298;-64
2023/08/09 09:04:27;;;;;;;;;;;17.80;69.90;;;;;;5112016;28;20328;-64
2023/08/09 09:06:54;;;;;;;;;;;17.80;69.90;;;;;;5112982;28;19920;-63
2023/08/09 09:09:20;;;;;;;;;;;17.90;69.90;;;;;;5146633;27;20364;-63
2023/08/09 09:11:46;;;;;;;;;;;17.90;69.80;;;;;;5113007;28;19924;-65
2023/08/09 09:14:12;;;;;;;;;;;17.90;69.80;;;;;;5112997;28;20431;-66
2023/08/09 09:16:38;;;;;;;;;;;17.90;69.80;;;;;;5111517;28;19924;-65
2023/08/09 09:19:04;;;;;;;;;;;17.90;69.80;;;;;;5111855;28;19958;-66
2023/08/09 09:21:31;;;;;;;;;;;17.90;69.70;;;;;;5112467;28;20014;-66
2023/08/09 09:23:57;;;;;;;;;;;18.00;69.60;;;;;;5112809;28;20437;-72
2023/08/09 09:26:22;;;;;;;;;;;18.00;69.70;;;;;;5094833;28;19970;-66
2023/08/09 09:28:48;;;;;;;;;;;18.00;69.70;;;;;;5094628;28;19975;-65
2023/08/09 09:31:17;;;;;;;;;;;18.00;69.60;;;;;;5094776;28;19934;-66
2023/08/09 09:33:45;;;;;;;;;;;18.00;69.60;;;;;;5094713;28;19919;-65
2023/08/09 09:36:11;;;;;;;;;;;18.00;69.60;;;;;;5112940;28;20325;-65
2023/08/09 09:38:38;;;;;;;;;;;18.00;70.30;;;;;;5094417;28;19946;-72
2023/08/09 09:41:03;;;;;;;;;;;18.00;69.60;;;;;;5112775;28;19924;-66
2023/08/09 09:43:32;;;;;;;;;;;18.00;69.50;;;;;;5131846;27;19920;-65
2023/08/09 09:45:58;;;;;;;;;;;18.00;69.40;;;;;;5116797;28;19920;-70
2023/08/09 09:48:25;;;;;;;;;;;18.00;69.40;;;;;;5098396;28;20386;-65
2023/08/09 09:50:51;;;;;;;;;;;18.10;69.40;;;;;;5116562;28;19924;-65
2023/08/09 09:53:17;;;;;;;;;;;18.10;69.40;;;;;;5098464;28;20298;-65
2023/08/09 09:55:43;;;;;;;;;;;18.10;69.30;;;;;;5098521;28;19919;-66
2023/08/09 09:58:09;;;;;;;;;;;18.10;69.30;;;;;;5116504;28;19965;-65
2023/08/09 10:00:36;;;;;;;;;;;18.10;69.30;;;;;;5098374;28;19928;-66
2023/08/09 10:03:04;;;;;;;;;;;18.10;69.30;;;;;;5098274;28;20359;-66
2023/08/09 10:05:35;;;;;;;;;;;18.10;69.20;;;;;;5116323;28;19970;-66
2023/08/09 10:08:02;;;;;;;;;;;18.10;69.20;;;;;;5116278;28;19919;-66
2023/08/09 10:10:28;;;;;;;;;;;18.10;69.20;;;;;;5116437;28;20339;-66
2023/08/09 10:12:54;;;;;;;;;;;18.10;69.20;;;;;;5116282;28;19920;-70
2023/08/09 10:15:23;;;;;;;;;;;18.10;69.10;;;;;;5098135;28;20290;-70
2023/08/09 10:17:51;;;;;;;;;;;18.10;69.20;;;;;;5098095;28;19920;-70
2023/08/09 10:20:17;;;;;;;;;;;18.10;69.10;;;;;;5099625;28;19923;-63
2023/08/09 10:22:45;;;;;;;;;;;18.10;69.10;;;;;;5116130;28;19926;-64
2023/08/09 10:25:11;;;;;;;;;;;18.10;69.20;;;;;;5115033;28;19923;-64
2023/08/09 10:27:53;;;;;;;;;;;18.10;69.10;;;;;;5115985;28;19931;-64
2023/08/09 10:30:25;;;;;;;;;;;18.10;69.10;;;;;;5114868;28;19965;-63
2023/08/09 10:32:54;;;;;;;;;;;18.10;69.10;;;;;;5114593;28;20029;-63
2023/08/09 10:35:21;;;;;;;;;;;18.10;69.00;;;;;;5114496;28;19959;-63
2023/08/09 10:37:47;;;;;;;;;;;18.10;69.00;;;;;;5114699;28;19919;-63
2023/08/09 10:40:15;;;;;;;;;;;18.10;69.00;;;;;;5115556;28;19959;-64
2023/08/09 10:42:44;;;;;;;;;;;18.10;69.00;;;;;;5114688;28;20367;-63
2023/08/09 10:45:11;;;;;;;;;;;18.10;69.00;;;;;;5114523;28;19920;-71
2023/08/09 10:47:39;;;;;;;;;;;18.10;69.00;;;;;;5114270;28;19920;-63
2023/08/09 10:50:06;;;;;;;;;;;18.10;69.00;;;;;;5114472;28;20002;-64
2023/08/09 10:52:36;;;;;;;;;;;18.20;69.00;;;;;;5113855;28;19920;-70
2023/08/09 10:55:24;;;;;;;;;;;18.10;69.00;;;;;;5114293;28;19926;-72
2023/08/09 10:57:50;;;;;;;;;;;18.10;69.00;;;;;;5113954;28;19923;-64
2023/08/09 11:00:16;;;;;;;;;;;18.10;69.00;;;;;;5114147;28;20343;-71
2023/08/09 11:02:45;;;;;;;;;;;18.20;69.00;;;;;;5115473;28;20362;-64
2023/08/09 11:05:11;;;;;;;;;;;18.20;69.00;;;;;;5113826;28;19920;-64
2023/08/09 11:07:41;;;;;;;;;;;18.10;69.00;;;;;;5114184;28;20045;-64
2023/08/09 11:10:08;;;;;;;;;;;18.10;69.00;;;;;;5148496;27;20306;-63
2023/08/09 11:12:34;;;;;;;;;;;18.10;69.00;;;;;;5114044;28;20319;-63
2023/08/09 11:14:59;;;;;;;;;;;18.10;69.00;;;;;;5148486;27;19920;-71
2023/08/09 11:17:24;;;;;;;;;;;18.10;69.00;;;;;;5113933;28;19927;-64
2023/08/09 11:19:50;;;;;;;;;;;18.10;69.00;;;;;;5115081;28;19923;-71
2023/08/09 11:22:16;;;;;;;;;;;18.10;68.90;;;;;;5113265;28;19930;-71
2023/08/09 11:24:41;;;;;;;;;;;18.10;68.90;;;;;;5130987;27;19923;-64
2023/08/09 11:27:07;;;;;;;;;;;18.10;69.00;;;;;;5115181;28;19924;-71
2023/08/09 11:29:33;;;;;;;;;;;18.10;69.00;;;;;;5114620;28;20382;-64
2023/08/09 11:31:58;;;;;;;;;;;18.10;69.00;;;;;;5113687;28;20180;-64
2023/08/09 11:34:24;;;;;;;;;;;18.10;69.00;;;;;;5114652;28;19965;-70
2023/08/09 11:36:53;;;;;;;;;;;18.10;69.00;;;;;;5113568;28;19927;-71
2023/08/09 11:39:19;;;;;;;;;;;18.10;69.00;;;;;;5114686;28;19946;-71
2023/08/09 11:41:54;;;;;;;;;;;18.20;69.00;;;;;;5114364;28;19938;-64
2023/08/09 11:44:23;;;;;;;;;;;18.20;69.00;;;;;;5114489;28;20270;-72
2023/08/09 11:46:51;;;;;;;;;;;18.20;69.00;;;;;;5147500;27;20022;-71
2023/08/09 11:49:16;;;;;;;;;;;18.10;69.00;;;;;;5113441;28;19923;-63
2023/08/09 11:51:42;;;;;;;;;;;18.10;68.90;;;;;;5113085;28;19920;-71
2023/08/09 11:54:08;;;;;;;;;;;18.10;69.00;;;;;;5114354;28;19924;-64
2023/08/09 11:56:35;;;;;;;;;;;18.10;69.00;;;;;;5112848;28;19946;-64
2023/08/09 11:59:01;;;;;;;;;;;18.20;69.00;;;;;;5113183;28;20378;-64
2023/08/09 12:01:28;;;;;;;;;;;18.20;69.10;;;;;;5113983;28;20435;-63
2023/08/09 12:03:56;;;;;;;;;;;18.20;69.10;;;;;;5112895;28;19950;-63
2023/08/09 12:06:38;;;;;;;;;;;18.20;69.00;;;;;;5112432;28;19920;-71
2023/08/09 12:09:23;;;;;;;;;;;18.20;69.10;;;;;;5111982;28;19920;-63
2023/08/09 12:11:49;;;;;;;;;;;18.20;69.00;;;;;;5112730;28;20358;-63
2023/08/09 12:14:15;;;;;;;;;;;18.20;69.00;;;;;;5114058;28;19919;-64
2023/08/09 12:16:40;;;;;;;;;;;18.20;69.00;;;;;;5112481;28;19939;-63
2023/08/09 12:19:06;;;;;;;;;;;18.20;69.10;;;;;;5113743;28;19920;-64
2023/08/09 12:21:31;;;;;;;;;;;18.20;69.10;;;;;;5112309;28;19924;-64
2023/08/09 12:23:57;;;;;;;;;;;18.20;69.10;;;;;;5112224;28;20417;-64
2023/08/09 12:26:22;;;;;;;;;;;18.20;69.00;;;;;;5113932;28;19931;-64
2023/08/09 12:28:48;;;;;;;;;;;18.20;69.10;;;;;;5113696;28;19954;-63
2023/08/09 12:31:14;;;;;;;;;;;18.30;69.10;;;;;;5113727;28;20375;-64
2023/08/09 12:33:39;;;;;;;;;;;18.20;69.10;;;;;;5113530;28;19920;-63
2023/08/09 12:36:05;;;;;;;;;;;18.20;69.10;;;;;;5113437;28;19920;-63
2023/08/09 12:38:31;;;;;;;;;;;18.20;69.10;;;;;;5112365;28;19920;-64
2023/08/09 12:40:56;;;;;;;;;;;18.20;69.10;;;;;;5112028;28;20023;-64
2023/08/09 12:43:22;;;;;;;;;;;18.20;69.10;;;;;;5112317;28;19919;-64
2023/08/09 12:45:50;;;;;;;;;;;18.20;69.20;;;;;;5113454;28;19924;-63
2023/08/09 12:48:15;;;;;;;;;;;18.20;69.10;;;;;;5112171;28;19924;-63
2023/08/09 12:50:41;;;;;;;;;;;18.20;69.10;;;;;;5112317;28;19926;-64
2023/08/09 12:53:06;;;;;;;;;;;18.20;69.10;;;;;;5111967;28;19923;-70
2023/08/09 12:55:32;;;;;;;;;;;18.30;69.10;;;;;;5113048;28;20180;-63
2023/08/09 12:57:58;;;;;;;;;;;18.30;69.20;;;;;;5112089;28;19924;-63
2023/08/09 13:00:23;;;;;;;;;;;18.30;69.10;;;;;;5111897;28;19924;-71
2023/08/09 13:02:50;;;;;;;;;;;18.30;69.20;;;;;;5113169;28;20380;-64
2023/08/09 13:05:15;;;;;;;;;;;18.30;69.90;;;;;;5111961;28;19972;-64
2023/08/09 13:07:41;;;;;;;;;;;18.30;69.10;;;;;;5111767;28;19920;-64
2023/08/09 13:10:08;;;;;;;;;;;18.30;69.20;;;;;;5111924;28;19986;-64
2023/08/09 13:12:33;;;;;;;;;;;18.30;69.20;;;;;;5111718;28;19961;-70
2023/08/09 13:14:59;;;;;;;;;;;18.30;69.20;;;;;;5112844;28;19919;-64
2023/08/09 13:17:24;;;;;;;;;;;18.30;69.20;;;;;;5111468;28;19992;-64
2023/08/09 13:19:50;;;;;;;;;;;18.30;69.20;;;;;;5112816;28;19924;-64
2023/08/09 13:22:15;;;;;;;;;;;18.30;69.20;;;;;;5111264;28;19977;-71
2023/08/09 13:24:41;;;;;;;;;;;18.30;69.20;;;;;;5112691;28;20366;-71
2023/08/09 13:27:06;;;;;;;;;;;18.30;69.20;;;;;;5112732;28;19920;-71
2023/08/09 13:29:32;;;;;;;;;;;18.30;69.30;;;;;;5111725;28;19920;-70
2023/08/09 13:31:57;;;;;;;;;;;18.30;69.30;;;;;;5111728;28;20408;-63
2023/08/09 13:34:23;;;;;;;;;;;18.30;69.30;;;;;;5111774;28;19927;-64
2023/08/09 13:36:48;;;;;;;;;;;18.40;69.40;;;;;;5111324;28;19974;-68
2023/08/09 13:39:14;;;;;;;;;;;18.30;69.30;;;;;;5112736;28;20024;-63
2023/08/09 13:41:39;;;;;;;;;;;18.30;69.40;;;;;;5112362;28;20385;-64
2023/08/09 13:44:05;;;;;;;;;;;18.30;69.40;;;;;;5111338;28;19927;-64
2023/08/09 13:46:32;;;;;;;;;;;18.30;69.40;;;;;;5112742;28;19926;-63
2023/08/09 13:48:58;;;;;;;;;;;18.30;69.40;;;;;;5111577;28;19920;-64
2023/08/09 13:51:24;;;;;;;;;;;18.30;69.50;;;;;;5111588;28;20385;-71
2023/08/09 13:53:52;;;;;;;;;;;18.30;69.40;;;;;;5111207;28;19923;-63
2023/08/09 13:56:18;;;;;;;;;;;18.30;69.40;;;;;;5111157;28;20379;-71
2023/08/09 13:58:43;;;;;;;;;;;18.30;69.40;;;;;;5145513;27;19926;-70
2023/08/09 14:01:09;;;;;;;;;;;18.30;69.50;;;;;;5111151;28;20026;-71
2023/08/09 14:03:35;;;;;;;;;;;18.30;69.50;;;;;;5112525;28;20275;-67
2023/08/09 14:06:01;;;;;;;;;;;18.30;69.50;;;;;;5111357;28;20441;-70
2023/08/09 14:08:27;;;;;;;;;;;18.30;69.50;;;;;;5112475;28;19920;-64
2023/08/09 14:10:52;;;;;;;;;;;18.30;69.40;;;;;;5111058;28;20014;-71
2023/08/09 14:13:18;;;;;;;;;;;18.30;69.40;;;;;;5111303;28;19920;-71